createdAt,value
2018-03-19T00:01:47.606Z,3.10
2018-03-19T00:04:16.040Z,3.33
2018-03-19T00:06:44.315Z,3.20
2018-03-19T00:09:12.901Z,3.23
2018-03-19T00:11:41.190Z,3.43
2018-03-19T00:14:09.619Z,2.90
2018-03-19T00:16:38.568Z,2.97
2018-03-19T00:19:07.332Z,3.30
2018-03-19T00:21:36.310Z,3.87
2018-03-19T00:24:04.882Z,3.53
2018-03-19T00:26:33.361Z,3.10
2018-03-19T00:29:02.050Z,3.07
2018-03-19T00:31:30.511Z,3.53
2018-03-19T00:33:59.699Z,3.37
2018-03-19T00:36:28.299Z,3.37
2018-03-19T00:38:56.830Z,3.40
2018-03-19T00:41:25.463Z,3.70
2018-03-19T00:43:54.027Z,3.33
2018-03-19T00:46:22.622Z,3.50
2018-03-19T00:48:51.304Z,3.47
2018-03-19T00:51:20.024Z,3.27
2018-03-19T00:53:48.637Z,3.40
2018-03-19T00:56:17.221Z,3.30
2018-03-19T00:58:45.880Z,3.80
2018-03-19T01:01:14.410Z,3.37
2018-03-19T01:03:43.426Z,3.60
2018-03-19T01:06:12.114Z,3.40
2018-03-19T01:08:40.695Z,3.30
2018-03-19T01:11:09.358Z,3.40
2018-03-19T01:13:38.395Z,3.17
2018-03-19T01:16:07.133Z,3.63
2018-03-19T01:18:35.731Z,3.13
2018-03-19T01:21:04.369Z,3.50
2018-03-19T01:23:32.955Z,3.40
2018-03-19T01:26:01.526Z,3.40
2018-03-19T01:28:30.157Z,3.80
2018-03-19T01:30:59.090Z,3.37
2018-03-19T01:33:27.607Z,3.20
2018-03-19T01:35:56.217Z,3.80
2018-03-19T01:38:24.631Z,3.40
2018-03-19T01:40:53.465Z,3.40
2018-03-19T01:43:22.223Z,3.27
2018-03-19T01:45:50.784Z,3.80
2018-03-19T01:48:19.375Z,3.70
2018-03-19T01:50:47.899Z,3.53
2018-03-19T01:53:16.421Z,4.00
2018-03-19T01:55:44.984Z,3.20
2018-03-19T01:58:14.103Z,3.50
2018-03-19T02:00:42.688Z,3.83
2018-03-19T02:03:11.284Z,3.43
2018-03-19T02:05:39.926Z,3.70
2018-03-19T02:08:08.538Z,3.40
2018-03-19T02:10:37.102Z,4.00
2018-03-19T02:13:06.559Z,3.77
2018-03-19T02:15:35.114Z,3.50
2018-03-19T02:18:03.468Z,3.30
2018-03-19T02:20:31.779Z,3.60
2018-03-19T02:23:00.058Z,3.90
2018-03-19T02:25:28.363Z,3.40
2018-03-19T02:27:56.692Z,4.43
2018-03-19T02:30:24.972Z,3.47
2018-03-19T02:32:53.272Z,4.03
2018-03-19T02:35:21.706Z,3.73
2018-03-19T02:37:50.043Z,3.60
2018-03-19T02:40:18.512Z,4.20
2018-03-19T02:42:46.816Z,3.83
2018-03-19T02:45:15.495Z,4.07
2018-03-19T02:47:43.800Z,3.57
2018-03-19T02:50:12.091Z,3.70
2018-03-19T02:52:40.393Z,3.60
2018-03-19T02:55:08.694Z,3.63
2018-03-19T02:57:36.999Z,3.43
2018-03-19T03:00:05.276Z,4.17
2018-03-19T03:02:33.981Z,4.10
2018-03-19T03:05:02.612Z,4.00
2018-03-19T03:07:30.892Z,4.00
2018-03-19T03:09:59.320Z,3.80
2018-03-19T03:12:27.633Z,3.87
2018-03-19T03:14:55.909Z,4.13
2018-03-19T03:17:24.176Z,3.87
2018-03-19T03:19:52.507Z,4.00
2018-03-19T03:22:20.820Z,4.23
2018-03-19T03:24:49.217Z,4.20
2018-03-19T03:27:17.515Z,3.77
2018-03-19T03:29:45.791Z,3.93
2018-03-19T03:32:14.094Z,3.70
2018-03-19T03:34:42.807Z,3.67
2018-03-19T03:37:11.084Z,4.00
2018-03-19T03:39:39.366Z,4.03
2018-03-19T03:42:07.671Z,3.83
2018-03-19T03:44:35.943Z,4.23
2018-03-19T03:47:04.251Z,4.10
2018-03-19T03:49:32.564Z,4.47
2018-03-19T03:52:00.843Z,4.00
2018-03-19T03:54:29.124Z,4.20
2018-03-19T03:56:57.661Z,3.83
2018-03-19T03:59:26.018Z,3.70
2018-03-19T04:01:54.600Z,4.00
2018-03-19T04:04:22.918Z,3.90
2018-03-19T04:06:51.237Z,3.80
2018-03-19T04:09:19.531Z,3.47
2018-03-19T04:11:47.856Z,4.33
2018-03-19T04:14:16.129Z,4.03
2018-03-19T04:16:44.410Z,3.93
2018-03-19T04:19:12.736Z,3.90
2018-03-19T04:21:41.018Z,3.43
2018-03-19T04:24:09.319Z,3.93
2018-03-19T04:26:38.122Z,3.77
2018-03-19T04:29:06.424Z,4.10
2018-03-19T04:31:35.049Z,4.20
2018-03-19T04:34:03.357Z,3.90
2018-03-19T04:36:31.679Z,4.33
2018-03-19T04:39:00.030Z,3.87
2018-03-19T04:41:28.316Z,4.00
2018-03-19T04:43:56.636Z,3.63
2018-03-19T04:46:25.456Z,4.30
2018-03-19T04:48:53.757Z,4.10
2018-03-19T04:51:22.077Z,4.00
2018-03-19T04:53:50.352Z,3.67
2018-03-19T04:56:18.670Z,3.83
2018-03-19T04:58:47.200Z,3.57
2018-03-19T05:01:15.484Z,4.20
2018-03-19T05:03:43.773Z,3.87
2018-03-19T05:06:12.056Z,3.90
2018-03-19T05:08:40.361Z,4.30
2018-03-19T05:11:08.720Z,3.80
2018-03-19T05:13:37.026Z,3.83
2018-03-19T05:16:05.356Z,3.63
2018-03-19T05:18:34.062Z,3.67
2018-03-19T05:21:02.379Z,3.83
2018-03-19T05:23:30.721Z,3.73
2018-03-19T05:25:59.161Z,3.70
2018-03-19T05:28:27.520Z,3.63
2018-03-19T05:30:55.818Z,4.10
2018-03-19T05:33:24.147Z,3.83
2018-03-19T05:35:52.660Z,3.93
2018-03-19T05:38:21.039Z,4.00
2018-03-19T05:40:49.414Z,4.13
2018-03-19T05:43:17.692Z,4.50
2018-03-19T05:45:46.015Z,3.90
2018-03-19T05:48:14.715Z,3.53
2018-03-19T05:50:43.079Z,3.80
2018-03-19T05:53:11.786Z,4.10
2018-03-19T05:55:40.083Z,4.07
2018-03-19T05:58:08.389Z,4.00
2018-03-19T06:00:36.967Z,3.93
2018-03-19T06:03:05.606Z,3.93
2018-03-19T06:05:33.898Z,4.33
2018-03-19T06:08:02.759Z,4.40
2018-03-19T06:10:31.091Z,3.83
2018-03-19T06:12:59.446Z,3.77
2018-03-19T06:15:27.798Z,3.80
2018-03-19T06:17:56.091Z,4.00
2018-03-19T06:20:24.397Z,3.93
2018-03-19T06:22:53.148Z,3.97
2018-03-19T06:25:21.431Z,4.33
2018-03-19T06:27:49.763Z,4.00
2018-03-19T06:30:18.127Z,4.07
2018-03-19T06:32:46.427Z,3.83
2018-03-19T06:35:15.244Z,4.47
2018-03-19T06:37:44.052Z,3.63
2018-03-19T06:40:12.442Z,4.20
2018-03-19T06:42:40.851Z,4.03
2018-03-19T06:45:09.207Z,4.30
2018-03-19T06:47:37.493Z,4.30
2018-03-19T06:50:05.938Z,4.60
2018-03-19T06:52:34.287Z,4.40
2018-03-19T06:55:02.577Z,4.67
2018-03-19T06:57:30.890Z,4.30
2018-03-19T07:00:00.310Z,4.27
2018-03-19T07:02:28.810Z,4.77
2018-03-19T07:04:57.509Z,4.73
2018-03-19T07:07:26.215Z,4.53
2018-03-19T07:09:54.496Z,4.53
2018-03-19T07:12:27.189Z,4.43
2018-03-19T07:14:56.304Z,4.67
2018-03-19T07:17:25.508Z,4.67
2018-03-19T07:19:53.838Z,4.53
2018-03-19T07:22:22.676Z,4.43
2018-03-19T07:24:51.017Z,4.67
2018-03-19T07:27:19.312Z,4.50
2018-03-19T07:29:47.892Z,4.80
2018-03-19T07:32:16.494Z,4.03
2018-03-19T07:35:07.103Z,4.40
2018-03-19T07:37:35.920Z,4.20
2018-03-19T07:40:04.233Z,4.03
2018-03-19T07:42:32.858Z,4.20
2018-03-19T07:45:01.192Z,4.20
2018-03-19T07:47:29.808Z,4.63
2018-03-19T07:49:58.094Z,4.43
2018-03-19T07:52:26.810Z,4.27
2018-03-19T07:54:55.114Z,4.30
2018-03-19T07:57:23.448Z,4.30
2018-03-19T07:59:51.781Z,4.07
2018-03-19T08:02:20.502Z,4.07
2018-03-19T08:04:48.806Z,4.20
2018-03-19T08:07:17.111Z,4.00
2018-03-19T08:09:45.466Z,4.00
2018-03-19T08:12:19.596Z,4.23
2018-03-19T08:14:47.888Z,4.23
2018-03-19T08:17:16.164Z,4.13
2018-03-19T08:19:49.508Z,3.67
2018-03-19T08:22:18.383Z,3.87
2018-03-19T08:24:46.727Z,3.80
2018-03-19T08:27:15.028Z,3.60
2018-03-19T08:29:43.305Z,3.97
2018-03-19T08:32:11.879Z,3.60
2018-03-19T08:34:40.198Z,3.90
2018-03-19T08:37:08.847Z,3.70
2018-03-19T08:39:37.129Z,4.07
2018-03-19T08:42:05.451Z,4.10
2018-03-19T08:44:33.743Z,3.27
2018-03-19T08:47:02.069Z,4.00
2018-03-19T08:49:30.440Z,3.13
2018-03-19T08:51:58.893Z,3.40
2018-03-19T08:54:27.540Z,3.70
2018-03-19T08:56:55.936Z,3.40
2018-03-19T08:59:24.275Z,3.60
2018-03-19T09:01:52.616Z,3.80
2018-03-19T09:04:20.959Z,3.13
2018-03-19T09:06:49.587Z,3.27
2018-03-19T09:09:17.992Z,3.30
2018-03-19T09:11:46.295Z,2.90
2018-03-19T09:14:15.310Z,3.40
2018-03-19T09:16:43.624Z,2.87
2018-03-19T09:19:11.908Z,3.03
2018-03-19T09:21:40.535Z,3.20
2018-03-19T09:24:08.864Z,2.83
2018-03-19T09:26:37.152Z,3.00
2018-03-19T09:29:05.492Z,2.87
2018-03-19T09:31:34.691Z,2.90
2018-03-19T09:34:03.481Z,3.30
2018-03-19T09:36:31.790Z,2.60
2018-03-19T09:39:00.074Z,2.87
2018-03-19T09:41:28.793Z,3.10
2018-03-19T09:43:57.414Z,3.00
2018-03-19T09:46:25.704Z,2.63
2018-03-19T09:48:54.387Z,2.70
2018-03-19T09:51:22.704Z,2.73
2018-03-19T09:53:50.987Z,2.97
2018-03-19T09:56:19.296Z,2.33
2018-03-19T09:58:47.887Z,2.80
2018-03-19T10:01:16.186Z,2.40
2018-03-19T10:03:44.482Z,2.50
2018-03-19T10:06:12.788Z,2.47
2018-03-19T10:08:41.068Z,2.40
2018-03-19T10:11:09.339Z,2.17
2018-03-19T10:13:37.652Z,2.10
2018-03-19T10:16:05.967Z,2.97
2018-03-19T10:18:34.243Z,2.53
2018-03-19T10:21:02.576Z,2.30
2018-03-19T10:23:30.879Z,2.40
2018-03-19T10:25:59.572Z,2.23
2018-03-19T10:28:27.938Z,2.40
2018-03-19T10:30:56.232Z,2.13
2018-03-19T10:33:25.237Z,2.37
2018-03-19T10:35:53.880Z,2.17
2018-03-19T10:38:22.215Z,2.57
2018-03-19T10:40:50.836Z,2.30
2018-03-19T10:43:19.123Z,2.20
2018-03-19T10:45:47.442Z,2.20
2018-03-19T10:48:15.727Z,1.97
2018-03-19T10:50:44.258Z,1.93
2018-03-19T10:53:12.541Z,2.60
2018-03-19T10:55:41.535Z,2.57
2018-03-19T10:58:10.231Z,2.10
2018-03-19T11:00:38.907Z,2.30
2018-03-19T11:03:07.986Z,2.40
2018-03-19T11:05:42.057Z,2.27
2018-03-19T11:08:10.367Z,2.47
2018-03-19T11:10:39.058Z,2.70
2018-03-19T11:13:07.327Z,2.33
2018-03-19T11:15:35.671Z,2.60
2018-03-19T11:18:04.075Z,2.43
2018-03-19T11:20:32.408Z,2.20
2018-03-19T11:23:00.696Z,2.40
2018-03-19T11:25:29.015Z,2.03
2018-03-19T11:27:57.332Z,2.17
2018-03-19T11:30:25.642Z,2.10
2018-03-19T11:32:54.018Z,2.10
2018-03-19T11:35:22.328Z,2.23
2018-03-19T11:37:50.915Z,2.17
2018-03-19T11:40:19.194Z,2.10
2018-03-19T11:42:47.503Z,2.00
2018-03-19T11:45:16.206Z,2.23
2018-03-19T11:47:44.488Z,1.90
2018-03-19T11:50:12.818Z,2.20
2018-03-19T11:52:41.100Z,2.30
2018-03-19T11:55:09.378Z,2.10
2018-03-19T11:57:38.084Z,1.87
2018-03-19T12:00:06.632Z,1.90
2018-03-19T12:02:34.990Z,1.90
2018-03-19T12:05:03.268Z,2.00
2018-03-19T12:07:31.543Z,1.80
2018-03-19T12:09:59.929Z,2.30
2018-03-19T12:12:28.219Z,2.40
2018-03-19T12:14:56.494Z,2.50
2018-03-19T12:17:24.881Z,2.73
2018-03-19T12:19:53.572Z,2.30
2018-03-19T12:22:21.916Z,2.90
2018-03-19T12:24:50.830Z,3.50
2018-03-19T12:27:19.554Z,2.73
2018-03-19T12:29:48.605Z,3.13
2018-03-19T12:32:16.922Z,3.20
2018-03-19T12:34:45.215Z,3.10
2018-03-19T12:37:13.490Z,2.73
2018-03-19T12:39:41.807Z,3.30
2018-03-19T12:42:10.080Z,2.80
2018-03-19T12:44:38.447Z,2.87
2018-03-19T12:47:06.746Z,2.80
2018-03-19T12:49:35.034Z,2.70
2018-03-19T12:52:03.795Z,2.60
2018-03-19T12:54:33.393Z,3.07
2018-03-19T12:57:01.751Z,3.00
2018-03-19T12:59:31.627Z,3.43
2018-03-19T13:02:00.144Z,2.90
2018-03-19T13:04:28.431Z,3.53
2018-03-19T13:06:57.229Z,3.10
2018-03-19T13:09:25.566Z,2.87
2018-03-19T13:11:54.236Z,2.90
2018-03-19T13:14:22.932Z,3.10
2018-03-19T13:16:51.609Z,3.03
2018-03-19T13:19:19.954Z,3.63
2018-03-19T13:21:48.264Z,3.40
2018-03-19T13:24:16.983Z,4.00
2018-03-19T13:26:45.628Z,3.60
2018-03-19T13:29:14.600Z,3.40
2018-03-19T13:31:42.879Z,3.77
2018-03-19T13:34:11.572Z,3.67
2018-03-19T13:36:39.912Z,3.53
2018-03-19T13:39:08.188Z,3.83
2018-03-19T13:41:36.473Z,3.70
2018-03-19T13:44:04.768Z,3.07
2018-03-19T13:46:33.039Z,3.67
2018-03-19T13:49:01.351Z,3.60
2018-03-19T13:51:30.681Z,3.50
2018-03-19T13:53:59.052Z,4.10
2018-03-19T13:56:27.364Z,3.27
2018-03-19T13:58:55.959Z,3.70
2018-03-19T14:01:24.314Z,3.80
2018-03-19T14:03:52.964Z,3.40
2018-03-19T14:06:21.511Z,4.40
2018-03-19T14:08:49.793Z,4.07
2018-03-19T14:11:18.090Z,3.87
2018-03-19T14:13:47.059Z,3.83
2018-03-19T14:16:15.339Z,3.80
2018-03-19T14:18:43.907Z,4.33
2018-03-19T14:21:12.203Z,3.83
2018-03-19T14:23:41.143Z,4.27
2018-03-19T14:26:09.430Z,4.07
2018-03-19T14:28:38.035Z,4.30
2018-03-19T14:31:06.337Z,3.80
2018-03-19T14:33:34.643Z,3.87
2018-03-19T14:36:02.917Z,4.07
2018-03-19T14:38:31.215Z,4.20
2018-03-19T14:40:59.487Z,4.40
2018-03-19T14:43:27.798Z,4.30
2018-03-19T14:45:56.075Z,4.40
2018-03-19T14:48:24.348Z,3.40
2018-03-19T14:50:52.736Z,4.10
2018-03-19T14:53:22.009Z,4.67
2018-03-19T14:55:50.280Z,4.33
2018-03-19T14:58:18.661Z,4.43
2018-03-19T15:00:47.044Z,4.53
2018-03-19T15:03:15.641Z,3.73
2018-03-19T15:05:43.920Z,3.83
2018-03-19T15:08:12.383Z,4.60
2018-03-19T15:10:40.655Z,4.83
2018-03-19T15:13:08.928Z,4.13
2018-03-19T15:15:37.339Z,4.27
2018-03-19T15:18:05.619Z,4.40
2018-03-19T15:20:33.968Z,4.10
2018-03-19T15:23:02.272Z,4.40
2018-03-19T15:25:30.548Z,4.80
2018-03-19T15:27:58.871Z,4.20
2018-03-19T15:30:27.188Z,5.37
2018-03-19T15:32:55.475Z,4.20
2018-03-19T15:35:24.239Z,4.97
2018-03-19T15:37:52.586Z,4.30
2018-03-19T15:40:20.891Z,4.20
2018-03-19T15:42:49.178Z,4.27
2018-03-19T15:45:17.551Z,4.37
2018-03-19T15:47:46.248Z,4.77
2018-03-19T15:50:14.528Z,4.70
2018-03-19T15:52:42.860Z,3.80
2018-03-19T15:55:11.135Z,4.37
2018-03-19T15:57:39.416Z,5.00
2018-03-19T16:00:08.038Z,4.33
2018-03-19T16:02:36.343Z,4.10
2018-03-19T16:05:05.022Z,4.43
2018-03-19T16:07:33.724Z,4.50
2018-03-19T16:10:02.014Z,3.20
2018-03-19T16:12:30.324Z,4.00
2018-03-19T16:14:58.629Z,3.10
2018-03-19T16:17:26.918Z,4.43
2018-03-19T16:19:55.609Z,4.77
2018-03-19T16:22:25.088Z,3.67
2018-03-19T16:24:53.360Z,4.73
2018-03-19T16:27:21.680Z,4.83
2018-03-19T16:29:50.344Z,4.47
2018-03-19T16:32:18.633Z,5.00
2018-03-19T16:34:46.924Z,4.50
2018-03-19T16:37:15.234Z,4.40
2018-03-19T16:39:43.834Z,4.93
2018-03-19T16:42:12.173Z,4.47
2018-03-19T16:44:40.726Z,4.30
2018-03-19T16:47:09.451Z,4.47
2018-03-19T16:49:37.779Z,4.87
2018-03-19T16:52:06.529Z,4.77
2018-03-19T16:54:34.855Z,4.93
2018-03-19T16:57:03.567Z,5.03
2018-03-19T16:59:31.847Z,5.03
2018-03-19T17:02:00.125Z,5.23
2018-03-19T17:04:28.443Z,4.30
2018-03-19T17:06:56.737Z,5.00
2018-03-19T17:09:25.516Z,5.37
2018-03-19T17:11:53.876Z,5.13
2018-03-19T17:14:22.170Z,6.17
2018-03-19T17:16:50.477Z,5.00
2018-03-19T17:19:19.128Z,5.30
2018-03-19T17:21:47.490Z,5.80
2018-03-19T17:24:16.244Z,5.57
2018-03-19T17:26:44.555Z,5.60
2018-03-19T17:29:12.926Z,5.20
2018-03-19T17:31:41.222Z,6.20
2018-03-19T17:34:09.989Z,5.80
2018-03-19T17:36:38.308Z,5.03
2018-03-19T17:39:06.699Z,5.93
2018-03-19T17:41:35.453Z,5.87
2018-03-19T17:44:04.572Z,6.10
2018-03-19T17:46:33.272Z,5.70
2018-03-19T17:49:01.585Z,5.70
2018-03-19T17:51:30.195Z,4.90
2018-03-19T17:53:58.640Z,6.93
2018-03-19T17:56:26.922Z,5.90
2018-03-19T17:58:56.070Z,5.97
2018-03-19T18:01:24.364Z,6.10
2018-03-19T18:03:53.003Z,6.60
2018-03-19T18:06:21.323Z,5.77
2018-03-19T18:08:49.742Z,6.30
2018-03-19T18:11:18.123Z,5.70
2018-03-19T18:13:46.439Z,6.00
2018-03-19T18:16:15.119Z,5.40
2018-03-19T18:18:43.564Z,25.20
2018-03-19T18:21:11.872Z,6.90
2018-03-19T18:23:40.156Z,7.00
2018-03-19T18:26:08.904Z,6.90
2018-03-19T18:28:37.856Z,7.10
2018-03-19T18:31:07.206Z,6.73
2018-03-19T18:33:36.524Z,7.50
2018-03-19T18:36:07.666Z,7.47
2018-03-19T18:38:36.682Z,7.73
2018-03-19T18:41:07.289Z,6.73
2018-03-19T18:43:37.401Z,7.60
2018-03-19T18:46:07.942Z,6.70
2018-03-19T18:48:39.497Z,7.50
2018-03-19T18:51:08.264Z,7.30
2018-03-19T18:53:36.796Z,7.80
2018-03-19T18:56:05.100Z,7.50
2018-03-19T18:58:33.527Z,7.40
2018-03-19T19:01:02.244Z,6.90
2018-03-19T19:03:30.564Z,6.83
2018-03-19T19:05:59.316Z,8.30
2018-03-19T19:08:27.666Z,7.80
2018-03-19T19:10:56.589Z,7.80
2018-03-19T19:13:24.934Z,7.43
2018-03-19T19:15:53.236Z,7.33
2018-03-19T19:18:21.541Z,7.93
2018-03-19T19:20:50.144Z,8.60
2018-03-19T19:23:18.440Z,7.07
2018-03-19T19:25:47.130Z,8.07
2018-03-19T19:28:15.503Z,8.47
2018-03-19T19:30:43.798Z,7.87
2018-03-19T19:33:12.090Z,8.70
2018-03-19T19:35:40.825Z,7.87
2018-03-19T19:38:09.121Z,7.87
2018-03-19T19:40:37.594Z,8.47
2018-03-19T19:43:05.935Z,8.70
2018-03-19T19:45:34.220Z,7.77
2018-03-19T19:48:02.565Z,8.37
2018-03-19T19:50:30.875Z,8.53
2018-03-19T19:52:59.602Z,8.50
2018-03-19T19:55:28.320Z,7.63
2018-03-19T19:57:56.611Z,8.20
2018-03-19T20:00:24.920Z,9.23
2018-03-19T20:02:53.196Z,8.83
2018-03-19T20:05:21.485Z,8.53
2018-03-19T20:07:50.205Z,9.43
2018-03-19T20:10:18.539Z,13.27
2018-03-19T20:12:47.145Z,9.60
2018-03-19T20:15:15.959Z,9.23
2018-03-19T20:17:44.524Z,9.10
2018-03-19T20:20:12.872Z,10.27
2018-03-19T20:22:41.231Z,9.80
2018-03-19T20:25:09.511Z,10.27
2018-03-19T20:27:37.815Z,10.40
2018-03-19T20:30:06.379Z,9.57
2018-03-19T20:32:34.778Z,9.30
2018-03-19T20:35:03.086Z,9.47
2018-03-19T20:37:31.452Z,8.70
2018-03-19T20:39:59.776Z,9.50
2018-03-19T20:42:28.143Z,9.70
2018-03-19T20:44:56.493Z,9.20
2018-03-19T20:47:24.921Z,8.93
2018-03-19T20:49:53.393Z,8.27
2018-03-19T20:52:21.730Z,9.03
2018-03-19T20:54:50.088Z,9.00
2018-03-19T20:57:18.526Z,8.00
2018-03-19T20:59:46.865Z,9.33
2018-03-19T21:02:15.367Z,9.20
2018-03-19T21:04:43.717Z,8.63
2018-03-19T21:07:12.362Z,7.70
2018-03-19T21:09:40.693Z,4.67
2018-03-19T21:12:09.032Z,4.40
2018-03-19T21:14:37.305Z,4.30
2018-03-19T21:17:05.984Z,4.50
2018-03-19T21:19:34.329Z,4.50
2018-03-19T21:22:02.849Z,4.43
2018-03-19T21:24:31.529Z,4.07
2018-03-19T21:26:59.847Z,4.60
2018-03-19T21:29:28.498Z,4.57
2018-03-19T21:31:56.777Z,4.40
2018-03-19T21:34:26.150Z,4.43
2018-03-19T21:36:54.425Z,4.53
2018-03-19T21:39:22.698Z,4.70
2018-03-19T21:41:51.297Z,4.40
2018-03-19T21:44:19.577Z,4.20
2018-03-19T21:46:47.860Z,4.17
2018-03-19T21:49:16.178Z,4.30
2018-03-19T21:51:44.467Z,4.50
2018-03-19T21:54:12.752Z,4.60
2018-03-19T21:56:41.376Z,5.03
2018-03-19T21:59:09.668Z,5.03
2018-03-19T22:01:38.344Z,4.37
2018-03-19T22:04:07.037Z,4.17
2018-03-19T22:06:35.724Z,4.60
2018-03-19T22:09:04.408Z,4.17
2018-03-19T22:11:35.166Z,4.33
2018-03-19T22:14:04.930Z,4.50
2018-03-19T22:16:33.261Z,4.03
2018-03-19T22:19:01.570Z,4.47
2018-03-19T22:21:29.909Z,4.47
2018-03-19T22:23:58.190Z,4.27
2018-03-19T22:26:26.483Z,4.57
2018-03-19T22:28:54.806Z,4.33
2018-03-19T22:31:23.584Z,4.00
2018-03-19T22:33:52.425Z,4.10
2018-03-19T22:36:20.952Z,4.17
2018-03-19T22:38:49.334Z,4.33
2018-03-19T22:41:17.644Z,5.00
2018-03-19T22:43:45.968Z,4.43
2018-03-19T22:46:14.243Z,4.33
2018-03-19T22:48:42.535Z,4.50
2018-03-19T22:51:11.407Z,4.70
2018-03-19T22:53:39.787Z,4.73
2018-03-19T22:56:08.070Z,4.90
2018-03-19T22:58:36.445Z,4.73
2018-03-19T23:01:05.456Z,4.40
2018-03-19T23:03:33.817Z,4.63
2018-03-19T23:06:03.219Z,4.67
2018-03-19T23:08:32.791Z,4.80
2018-03-19T23:11:02.817Z,4.90
2018-03-19T23:13:32.500Z,4.60
2018-03-19T23:16:01.144Z,4.70
2018-03-19T23:18:30.307Z,4.57
2018-03-19T23:20:59.830Z,5.07
2018-03-19T23:23:28.454Z,4.33
2018-03-19T23:25:57.141Z,4.60
2018-03-19T23:28:26.040Z,4.60
2018-03-19T23:30:54.885Z,4.90
2018-03-19T23:33:23.994Z,4.83
2018-03-19T23:35:53.198Z,3.40
2018-03-19T23:38:21.976Z,4.47
2018-03-19T23:40:50.634Z,4.20
2018-03-19T23:43:19.403Z,4.27
2018-03-19T23:45:48.433Z,4.13
2018-03-19T23:48:18.381Z,4.17
2018-03-19T23:50:47.292Z,4.50
2018-03-19T23:53:16.266Z,4.10
2018-03-19T23:55:45.337Z,4.70
2018-03-19T23:58:14.474Z,4.10
